createdAt,value
2017-07-15T08:01:43.923Z,310
2017-07-15T08:03:46.521Z,300
2017-07-15T08:05:49.617Z,415
2017-07-15T08:07:52.431Z,570
2017-07-15T08:09:55.427Z,1070
2017-07-15T08:11:58.334Z,2720
2017-07-15T08:14:01.652Z,3770
2017-07-15T08:16:04.747Z,3335
2017-07-15T08:18:07.447Z,1390
2017-07-15T08:20:10.981Z,2620
2017-07-15T08:20:51.325Z,1680
2017-07-15T08:21:31.376Z,4120
2017-07-15T08:22:11.992Z,3370
2017-07-15T08:22:52.620Z,1935
2017-07-15T08:23:32.549Z,905
2017-07-15T08:24:12.573Z,800
2017-07-15T08:24:52.600Z,820
2017-07-15T08:25:32.836Z,820
2017-07-15T08:26:12.904Z,825
2017-07-15T08:26:53.236Z,855
2017-07-15T08:27:33.255Z,920
2017-07-15T08:28:13.689Z,660
2017-07-15T08:28:54.322Z,600
2017-07-15T08:29:34.544Z,575
2017-07-15T08:30:14.771Z,550
2017-07-15T08:30:54.697Z,520
2017-07-15T08:31:35.022Z,495
2017-07-15T08:32:15.252Z,475
2017-07-15T08:32:55.683Z,470
2017-07-15T08:33:35.806Z,425
2017-07-15T08:34:16.341Z,375
2017-07-15T08:34:56.469Z,340
2017-07-15T08:35:36.937Z,320
2017-07-15T08:36:17.074Z,280
2017-07-15T08:36:57.096Z,250
2017-07-15T08:37:37.641Z,215
2017-07-15T08:38:18.473Z,190
2017-07-15T08:38:58.915Z,175
2017-07-15T08:39:39.338Z,155
2017-07-15T08:40:19.568Z,130
2017-07-15T08:40:59.602Z,110
2017-07-15T08:41:39.926Z,100
2017-07-15T08:42:20.257Z,105
2017-07-15T08:43:00.801Z,125
2017-07-15T08:43:41.435Z,140
2017-07-15T08:44:21.668Z,150
2017-07-15T08:45:01.900Z,175
2017-07-15T08:45:42.130Z,185
2017-07-15T08:46:22.564Z,205
2017-07-15T08:47:02.799Z,220
2017-07-15T08:47:43.129Z,235
2017-07-15T08:48:23.665Z,245
2017-07-15T08:49:04.102Z,250
2017-07-15T08:49:44.741Z,270
2017-07-15T08:50:24.571Z,290
2017-07-15T08:51:04.504Z,320
2017-07-15T08:51:44.537Z,350
2017-07-15T08:52:24.788Z,380
2017-07-15T08:53:05.033Z,415
2017-07-15T08:53:45.263Z,455
2017-07-15T08:54:25.590Z,485
2017-07-15T08:55:05.925Z,510
2017-07-15T08:55:45.972Z,525
2017-07-15T08:56:26.300Z,525
2017-07-15T08:57:06.635Z,520
2017-07-15T08:57:46.918Z,505
2017-07-15T08:58:27.445Z,495
2017-07-15T08:59:07.585Z,480
2017-07-15T08:59:47.923Z,475
2017-07-15T09:00:28.156Z,460
2017-07-15T09:01:08.298Z,440
2017-07-15T09:01:48.429Z,430
2017-07-15T09:02:28.461Z,435
2017-07-15T09:03:08.498Z,445
2017-07-15T09:03:49.035Z,435
2017-07-15T09:04:29.465Z,430
2017-07-15T09:05:09.707Z,455
2017-07-15T09:05:50.133Z,485
2017-07-15T09:06:30.763Z,510
2017-07-15T09:07:11.099Z,545
2017-07-15T09:07:51.225Z,570
2017-07-15T09:08:31.564Z,605
2017-07-15T09:09:11.589Z,650
2017-07-15T09:09:51.624Z,700
2017-07-15T09:10:31.950Z,770
2017-07-15T09:11:11.977Z,840
2017-07-15T09:11:52.514Z,960
2017-07-15T09:12:32.544Z,2565
2017-07-15T09:13:12.581Z,1245
2017-07-15T09:13:52.817Z,2335
2017-07-15T09:14:33.050Z,4350
2017-07-15T09:15:13.379Z,1305
2017-07-15T09:15:53.816Z,3225
2017-07-15T09:16:34.171Z,2075
2017-07-15T09:17:14.299Z,4200
2017-07-15T09:17:54.735Z,2455
2017-07-15T09:18:35.271Z,3900
2017-07-15T09:19:15.400Z,2600
2017-07-15T09:19:55.626Z,1775
2017-07-15T09:20:36.172Z,3375
2017-07-15T09:21:16.812Z,1905
2017-07-15T09:21:57.147Z,2840
2017-07-15T09:22:37.390Z,1415
2017-07-15T09:23:17.727Z,3425
2017-07-15T09:23:57.665Z,3450
2017-07-15T09:24:38.304Z,3310
2017-07-15T09:25:18.643Z,1975
2017-07-15T09:25:58.880Z,1985
2017-07-15T09:26:38.923Z,695
2017-07-15T09:27:19.558Z,570
2017-07-15T09:28:00.097Z,500
2017-07-15T09:28:40.234Z,460
2017-07-15T09:29:20.772Z,435
2017-07-15T09:30:00.906Z,430
2017-07-15T09:30:41.348Z,440
2017-07-15T09:31:21.850Z,430
2017-07-15T09:32:01.796Z,420
2017-07-15T09:32:42.128Z,390
2017-07-15T09:33:22.571Z,340
2017-07-15T09:34:02.532Z,300
2017-07-15T09:34:42.670Z,250
2017-07-15T09:35:23.106Z,225
2017-07-15T09:36:03.533Z,195
2017-07-15T09:36:43.785Z,170
2017-07-15T09:37:24.522Z,155
2017-07-15T09:38:04.553Z,150
2017-07-15T09:38:44.695Z,150
2017-07-15T09:39:25.228Z,165
2017-07-15T09:40:05.766Z,195
2017-07-15T09:40:46.204Z,220
2017-07-15T09:41:26.434Z,245
2017-07-15T09:42:06.774Z,255
2017-07-15T09:42:47.109Z,255
2017-07-15T09:43:27.346Z,250
2017-07-15T09:44:07.887Z,235
2017-07-15T09:44:48.127Z,225
2017-07-15T09:45:28.257Z,215
2017-07-15T09:46:08.691Z,205
2017-07-15T09:46:49.240Z,200
2017-07-15T09:47:29.286Z,210
2017-07-15T09:48:09.222Z,225
2017-07-15T09:48:49.553Z,245
2017-07-15T09:49:29.786Z,270
2017-07-15T09:50:10.122Z,290
2017-07-15T09:50:50.153Z,315
2017-07-15T09:51:30.489Z,345
2017-07-15T09:52:10.815Z,395
2017-07-15T09:52:51.158Z,425
2017-07-15T09:53:31.395Z,470
2017-07-15T09:54:11.822Z,525
2017-07-15T09:54:52.876Z,610
2017-07-15T09:55:33.105Z,695
2017-07-15T09:56:13.945Z,775
2017-07-15T09:56:53.980Z,885
2017-07-15T09:57:34.017Z,970
2017-07-15T09:58:14.392Z,985
2017-07-15T09:58:54.798Z,1065
2017-07-15T09:59:34.942Z,1380
2017-07-15T10:00:15.174Z,1585
2017-07-15T10:00:55.403Z,2940
2017-07-15T10:01:35.558Z,3360
2017-07-15T10:02:15.599Z,1360
2017-07-15T10:02:55.432Z,1555
2017-07-15T10:03:35.480Z,1410
2017-07-15T10:04:15.709Z,1285
2017-07-15T10:04:56.210Z,1240
2017-07-15T10:05:36.447Z,1840
2017-07-15T10:06:16.886Z,1240
2017-07-15T10:06:57.331Z,2275
2017-07-15T10:07:37.763Z,1635
2017-07-15T10:08:17.809Z,1245
2017-07-15T10:08:58.036Z,2465
2017-07-15T10:09:38.176Z,1585
2017-07-15T10:10:18.514Z,1340
2017-07-15T10:10:58.867Z,1105
2017-07-15T10:11:39.128Z,1040
2017-07-15T10:12:19.279Z,1025
2017-07-15T10:12:59.304Z,1115
2017-07-15T10:13:39.433Z,1345
2017-07-15T10:14:20.189Z,1255
2017-07-15T10:15:00.220Z,1245
2017-07-15T10:15:40.350Z,1520
2017-07-15T10:16:20.687Z,1545
2017-07-15T10:17:01.024Z,1555
2017-07-15T10:17:41.459Z,1285
2017-07-15T10:18:22.192Z,1940
2017-07-15T10:19:02.435Z,1535
2017-07-15T10:19:42.970Z,2430
2017-07-15T10:20:23.105Z,4545
2017-07-15T10:21:03.745Z,3080
2017-07-15T10:21:43.878Z,2100
2017-07-15T10:22:24.244Z,3990
2017-07-15T10:23:04.467Z,2435
2017-07-15T10:23:44.805Z,1590
2017-07-15T10:24:25.146Z,1770
2017-07-15T10:25:05.533Z,1605
2017-07-15T10:25:46.070Z,1345
2017-07-15T10:26:26.244Z,1130
2017-07-15T10:27:06.288Z,1070
2017-07-15T10:27:46.534Z,1145
2017-07-15T10:28:27.301Z,1740
2017-07-15T10:29:07.661Z,1160
2017-07-15T10:29:48.006Z,1190
2017-07-15T10:30:28.344Z,1350
2017-07-15T10:31:08.686Z,1220
2017-07-15T10:31:49.232Z,1895
2017-07-15T10:32:29.174Z,3930
2017-07-15T10:33:09.714Z,4210
2017-07-15T10:33:50.580Z,1965
2017-07-15T10:34:31.021Z,1150
2017-07-15T10:35:12.317Z,1435
2017-07-15T10:35:52.455Z,4055
2017-07-15T10:36:32.395Z,840
2017-07-15T10:37:13.234Z,750
2017-07-15T10:37:53.665Z,785
2017-07-15T10:38:34.010Z,3710
2017-07-15T10:39:14.168Z,3660
2017-07-15T10:39:54.298Z,3775
2017-07-15T10:40:34.536Z,980
2017-07-15T10:41:14.880Z,2815
2017-07-15T10:41:55.212Z,2305
2017-07-15T10:42:35.453Z,1810
2017-07-15T10:43:15.596Z,3400
2017-07-15T10:43:56.145Z,3525
2017-07-15T10:44:35.980Z,3285
2017-07-15T10:45:16.221Z,3295
2017-07-15T10:45:56.775Z,3310
2017-07-15T10:46:36.910Z,3310
2017-07-15T10:47:16.761Z,3250
2017-07-15T10:47:57.308Z,3170
2017-07-15T10:48:37.773Z,3355
2017-07-15T10:49:18.014Z,3335
2017-07-15T10:49:57.956Z,1830
2017-07-15T10:50:38.498Z,2190
2017-07-15T10:51:18.930Z,1110
2017-07-15T10:51:59.274Z,890
2017-07-15T10:52:39.811Z,875
2017-07-15T10:53:19.752Z,660
2017-07-15T10:54:00.107Z,645
2017-07-15T10:54:40.551Z,615
2017-07-15T10:55:21.043Z,600
2017-07-15T10:56:01.481Z,575
2017-07-15T10:56:42.046Z,560
2017-07-15T10:57:22.288Z,525
2017-07-15T10:58:02.335Z,525
2017-07-15T10:58:42.384Z,545
2017-07-15T10:59:22.526Z,570
2017-07-15T11:00:02.874Z,605
2017-07-15T11:00:43.211Z,680
2017-07-15T11:01:23.239Z,775
2017-07-15T11:02:03.422Z,1345
2017-07-15T11:02:43.661Z,865
2017-07-15T11:03:24.012Z,950
2017-07-15T11:04:04.561Z,1005
2017-07-15T11:04:45.408Z,1095
2017-07-15T11:05:25.443Z,1040
2017-07-15T11:06:05.996Z,1305
2017-07-15T11:06:46.188Z,1165
2017-07-15T11:07:26.232Z,1350
2017-07-15T11:08:06.375Z,1035
2017-07-15T11:08:46.514Z,930
2017-07-15T11:09:27.322Z,860
2017-07-15T11:10:07.763Z,800
2017-07-15T11:10:48.208Z,740
2017-07-15T11:11:28.746Z,710
2017-07-15T11:12:09.098Z,685
2017-07-15T11:12:50.351Z,655
2017-07-15T11:13:30.896Z,620
2017-07-15T11:14:11.259Z,585
2017-07-15T11:14:51.398Z,540
2017-07-15T11:15:31.450Z,460
2017-07-15T11:16:12.160Z,435
2017-07-15T11:16:52.734Z,435
2017-07-15T11:17:32.978Z,395
2017-07-15T11:18:13.115Z,365
2017-07-15T11:18:53.660Z,340
2017-07-15T11:19:33.708Z,320
2017-07-15T11:20:14.069Z,310
2017-07-15T11:20:54.414Z,290
2017-07-15T11:21:34.855Z,280
2017-07-15T11:22:15.306Z,275
2017-07-15T11:22:55.458Z,275
2017-07-15T11:23:35.503Z,285
2017-07-15T11:24:16.045Z,295
2017-07-15T11:24:55.984Z,305
2017-07-15T11:25:36.127Z,320
2017-07-15T11:26:16.372Z,330
2017-07-15T11:26:56.722Z,340
2017-07-15T11:27:36.871Z,345
2017-07-15T11:28:16.919Z,355
2017-07-15T11:28:58.456Z,380
2017-07-15T11:29:38.912Z,410
2017-07-15T11:30:19.238Z,440
2017-07-15T11:30:59.585Z,455
2017-07-15T11:31:40.041Z,475
2017-07-15T11:32:20.478Z,495
2017-07-15T11:33:00.455Z,510
2017-07-15T11:33:40.695Z,535
2017-07-15T11:34:21.049Z,550
2017-07-15T11:35:01.589Z,565
2017-07-15T11:35:41.729Z,600
2017-07-15T11:36:21.968Z,635
2017-07-15T11:37:02.322Z,685
2017-07-15T11:37:42.782Z,735
2017-07-15T11:38:22.717Z,870
2017-07-15T11:39:02.872Z,880
2017-07-15T11:39:43.113Z,865
2017-07-15T11:40:23.357Z,875
2017-07-15T11:41:03.705Z,915
2017-07-15T11:41:43.755Z,895
2017-07-15T11:42:23.611Z,870
2017-07-15T11:43:03.949Z,850
2017-07-15T11:43:44.010Z,845
2017-07-15T11:44:24.252Z,830
2017-07-15T11:45:04.695Z,810
2017-07-15T11:45:45.146Z,800
2017-07-15T11:46:25.792Z,780
2017-07-15T11:47:06.149Z,775
2017-07-15T11:47:46.488Z,755
2017-07-15T11:48:26.832Z,750
2017-07-15T11:49:07.093Z,715
2017-07-15T11:49:47.648Z,710
2017-07-15T11:50:27.989Z,750
2017-07-15T11:51:08.328Z,765
2017-07-15T11:51:48.385Z,765
2017-07-15T11:52:28.622Z,775
2017-07-15T11:53:09.164Z,785
2017-07-15T11:53:49.608Z,755
2017-07-15T11:54:29.549Z,750
2017-07-15T11:55:09.890Z,715
2017-07-15T11:55:50.337Z,715
2017-07-15T11:56:32.332Z,775
2017-07-15T11:57:12.384Z,765
2017-07-15T11:57:52.838Z,765
2017-07-15T11:58:32.883Z,770
2017-07-15T11:59:13.332Z,785
2017-07-15T11:59:53.597Z,795
2017-07-15T12:00:33.845Z,800
2017-07-15T12:01:13.894Z,795
2017-07-15T12:01:54.241Z,810
2017-07-15T12:02:34.795Z,810
2017-07-15T12:03:14.939Z,805
2017-07-15T12:03:55.227Z,800
2017-07-15T12:04:35.241Z,785
2017-07-15T12:05:15.384Z,765
2017-07-15T12:05:55.838Z,755
2017-07-15T12:06:36.497Z,755
2017-07-15T12:07:16.753Z,750
2017-07-15T12:07:56.909Z,770
2017-07-15T12:08:37.496Z,780
2017-07-15T12:09:17.651Z,770
2017-07-15T12:09:57.505Z,780
2017-07-15T12:10:37.778Z,790
2017-07-15T12:11:17.923Z,795
2017-07-15T12:11:58.469Z,780
2017-07-15T12:12:38.518Z,780
2017-07-15T12:13:18.563Z,775
2017-07-15T12:13:58.744Z,785
2017-07-15T12:14:38.969Z,790
2017-07-15T12:15:19.124Z,805
2017-07-15T12:15:59.570Z,825
2017-07-15T12:16:39.929Z,790
2017-07-15T12:17:20.673Z,790
2017-07-15T12:18:01.123Z,805
2017-07-15T12:18:41.272Z,785
2017-07-15T12:19:21.678Z,760
2017-07-15T12:20:01.941Z,740
2017-07-15T12:20:42.287Z,705
2017-07-15T12:21:22.535Z,695
2017-07-15T12:22:02.588Z,665
2017-07-15T12:22:43.133Z,655
2017-07-15T12:23:22.880Z,645
2017-07-15T12:24:03.519Z,620
2017-07-15T12:24:44.071Z,615
2017-07-15T12:25:24.415Z,555
2017-07-15T12:26:04.665Z,575
2017-07-15T12:26:44.915Z,555
2017-07-15T12:27:25.160Z,505
2017-07-15T12:28:05.411Z,475
2017-07-15T12:28:45.561Z,485
2017-07-15T12:29:25.618Z,500
2017-07-15T12:30:05.961Z,485
2017-07-15T12:30:46.318Z,500
2017-07-15T12:31:26.457Z,520
2017-07-15T12:32:06.994Z,525
2017-07-15T12:32:47.339Z,535
2017-07-15T12:33:27.691Z,495
2017-07-15T12:34:07.837Z,510
2017-07-15T12:34:48.000Z,520
2017-07-15T12:35:28.146Z,500
2017-07-15T12:36:08.592Z,445
2017-07-15T12:36:49.076Z,475
2017-07-15T12:37:29.644Z,470
2017-07-15T12:38:10.095Z,450
2017-07-15T12:38:50.139Z,440
2017-07-15T12:39:30.807Z,435
2017-07-15T12:40:10.948Z,400
2017-07-15T12:40:51.398Z,400
2017-07-15T12:41:31.737Z,390
2017-07-15T12:42:11.995Z,420
2017-07-15T12:42:52.541Z,440
2017-07-15T12:43:32.987Z,410
2017-07-15T12:44:13.553Z,450
2017-07-15T12:44:53.702Z,455
2017-07-15T12:45:33.658Z,430
2017-07-15T12:46:14.206Z,415
2017-07-15T12:46:54.355Z,425
2017-07-15T12:47:34.599Z,450
2017-07-15T12:48:15.247Z,465
2017-07-15T12:48:55.394Z,465
2017-07-15T12:49:35.843Z,485
2017-07-15T12:50:16.206Z,510
2017-07-15T12:50:56.325Z,530
2017-07-15T12:51:36.476Z,535
2017-07-15T12:52:16.737Z,590
2017-07-15T12:52:57.458Z,610
2017-07-15T12:53:37.501Z,600
2017-07-15T12:54:17.551Z,600
2017-07-15T12:54:57.892Z,585
2017-07-15T12:55:38.131Z,575
2017-07-15T12:56:18.692Z,545
2017-07-15T12:56:58.828Z,530
2017-07-15T12:57:38.994Z,520
2017-07-15T12:58:19.331Z,540
2017-07-15T12:58:59.482Z,580
2017-07-15T12:59:39.728Z,600
2017-07-15T13:00:20.481Z,585
2017-07-15T13:01:00.323Z,600
2017-07-15T13:01:40.462Z,595
2017-07-15T13:02:20.904Z,580
2017-07-15T13:03:00.951Z,575
2017-07-15T13:03:41.196Z,550
2017-07-15T13:04:21.637Z,515
2017-07-15T13:05:02.295Z,490
2017-07-15T13:05:42.837Z,470
2017-07-15T13:06:22.783Z,455
2017-07-15T13:07:02.731Z,435
2017-07-15T13:07:42.873Z,435
2017-07-15T13:08:22.917Z,450
2017-07-15T13:09:03.060Z,445
2017-07-15T13:09:43.708Z,415
2017-07-15T13:10:23.661Z,385
2017-07-15T13:11:03.906Z,400
2017-07-15T13:11:44.054Z,410
2017-07-15T13:12:24.399Z,410
2017-07-15T13:13:04.847Z,400
2017-07-15T13:13:45.396Z,395
2017-07-15T13:14:25.750Z,410
2017-07-15T13:15:05.995Z,415
2017-07-15T13:15:46.443Z,415
2017-07-15T13:16:26.784Z,430
2017-07-15T13:17:07.235Z,445
2017-07-15T13:17:47.775Z,430
2017-07-15T13:18:28.124Z,495
2017-07-15T13:19:07.975Z,520
2017-07-15T13:19:48.325Z,590
2017-07-15T13:20:28.765Z,580
2017-07-15T13:21:08.908Z,555
2017-07-15T13:21:49.145Z,570
2017-07-15T13:22:29.591Z,580
2017-07-15T13:23:09.839Z,595
2017-07-15T13:23:49.979Z,530
2017-07-15T13:24:30.527Z,510
2017-07-15T13:25:10.665Z,520
2017-07-15T13:25:50.939Z,560
2017-07-15T13:26:31.385Z,525
2017-07-15T13:27:11.830Z,515
2017-07-15T13:27:51.966Z,570
2017-07-15T13:28:32.010Z,595
2017-07-15T13:29:12.262Z,570
2017-07-15T13:29:52.803Z,540
2017-07-15T13:30:33.348Z,495
2017-07-15T13:31:13.717Z,565
2017-07-15T13:31:54.035Z,575
2017-07-15T13:32:34.379Z,565
2017-07-15T13:33:14.326Z,535
2017-07-15T13:33:54.263Z,550
2017-07-15T13:34:35.105Z,545
2017-07-15T13:35:15.351Z,535
2017-07-15T13:35:55.692Z,535
2017-07-15T13:36:38.140Z,555
2017-07-15T13:37:17.974Z,560
2017-07-15T13:37:58.421Z,575
2017-07-15T13:38:38.665Z,570
2017-07-15T13:39:18.809Z,565
2017-07-15T13:39:59.154Z,555
2017-07-15T13:40:39.296Z,520
2017-07-15T13:41:19.338Z,545
2017-07-15T13:41:59.780Z,565
2017-07-15T13:42:41.422Z,585
2017-07-15T13:43:21.763Z,580
2017-07-15T13:44:01.913Z,580
2017-07-15T13:44:42.169Z,565
2017-07-15T13:45:22.413Z,555
2017-07-15T13:46:02.656Z,545
2017-07-15T13:46:42.601Z,500
2017-07-15T13:47:22.848Z,485
2017-07-15T13:48:03.387Z,485
2017-07-15T13:48:43.535Z,470
2017-07-15T13:49:23.983Z,455
2017-07-15T13:50:04.122Z,440
2017-07-15T13:50:44.263Z,445
2017-07-15T13:51:24.704Z,460
2017-07-15T13:52:05.150Z,475
2017-07-15T13:52:46.514Z,450
2017-07-15T13:53:26.678Z,435
2017-07-15T13:54:07.021Z,450
2017-07-15T13:54:47.370Z,455
2017-07-15T13:55:27.215Z,465
2017-07-15T13:56:07.652Z,445
2017-07-15T13:56:48.093Z,440
2017-07-15T13:57:28.141Z,430
2017-07-15T13:58:08.476Z,430
2017-07-15T13:58:49.223Z,420
2017-07-15T13:59:29.564Z,415
2017-07-15T14:00:10.121Z,420
2017-07-15T14:00:50.971Z,415
2017-07-15T14:01:31.314Z,415
2017-07-15T14:02:11.762Z,410
2017-07-15T14:02:53.110Z,415
2017-07-15T14:03:33.449Z,420
2017-07-15T14:04:13.708Z,425
2017-07-15T14:04:54.350Z,425
2017-07-15T14:05:34.598Z,420
2017-07-15T14:06:14.843Z,420
2017-07-15T14:06:54.901Z,430
2017-07-15T14:07:35.051Z,435
2017-07-15T14:08:15.515Z,460
2017-07-15T14:08:55.748Z,455
2017-07-15T14:09:36.398Z,455
2017-07-15T14:10:16.860Z,455
2017-07-15T14:10:57.103Z,450
2017-07-15T14:11:37.541Z,455
2017-07-15T14:12:17.878Z,440
2017-07-15T14:12:58.028Z,445
2017-07-15T14:13:38.190Z,445
2017-07-15T14:14:18.425Z,450
2017-07-15T14:14:58.669Z,450
2017-07-15T14:15:39.002Z,460
2017-07-15T14:16:19.262Z,465
2017-07-15T14:16:59.814Z,480
2017-07-15T14:17:40.262Z,500
2017-07-15T14:18:20.716Z,505
2017-07-15T14:19:01.059Z,510
2017-07-15T14:19:41.116Z,505
2017-07-15T14:20:21.461Z,510
2017-07-15T14:21:01.806Z,490
2017-07-15T14:21:41.951Z,485
2017-07-15T14:22:22.291Z,490
2017-07-15T14:23:02.828Z,465
2017-07-15T14:23:42.976Z,440
2017-07-15T14:24:23.123Z,420
2017-07-15T14:25:03.575Z,405
2017-07-15T14:25:44.028Z,395
2017-07-15T14:26:24.176Z,395
2017-07-15T14:27:04.526Z,395
2017-07-15T14:27:44.404Z,395
2017-07-15T14:28:24.759Z,385
2017-07-15T14:29:05.117Z,375
2017-07-15T14:29:45.554Z,360
2017-07-15T14:30:25.801Z,355
2017-07-15T14:31:06.254Z,345
2017-07-15T14:31:47.100Z,330
2017-07-15T14:32:27.248Z,325
2017-07-15T14:33:07.393Z,330
2017-07-15T14:33:47.749Z,335
2017-07-15T14:34:28.102Z,330
2017-07-15T14:35:08.346Z,330
2017-07-15T14:35:48.696Z,330
2017-07-15T14:36:28.941Z,330
2017-07-15T14:37:09.379Z,330
2017-07-15T14:37:50.026Z,330
2017-07-15T14:38:30.071Z,335
2017-07-15T14:39:10.122Z,340
2017-07-15T14:39:50.663Z,340
2017-07-15T14:40:31.216Z,350
2017-07-15T14:41:11.666Z,355
2017-07-15T14:41:51.711Z,360
2017-07-15T14:42:31.755Z,365
2017-07-15T14:43:11.896Z,365
2017-07-15T14:43:52.351Z,370
2017-07-15T14:44:32.389Z,375
2017-07-15T14:45:12.841Z,380
2017-07-15T14:45:55.188Z,380
2017-07-15T14:46:35.737Z,385
2017-07-15T14:47:16.173Z,380
2017-07-15T14:47:56.323Z,385
2017-07-15T14:48:36.862Z,385
2017-07-15T14:49:17.307Z,390
2017-07-15T14:49:57.266Z,385
2017-07-15T14:50:37.518Z,380
2017-07-15T14:51:17.457Z,380
2017-07-15T14:51:57.998Z,375
2017-07-15T14:52:38.243Z,375
2017-07-15T14:53:18.691Z,365
2017-07-15T14:53:58.537Z,365
2017-07-15T14:54:38.879Z,360
2017-07-15T14:55:19.324Z,350
2017-07-15T14:55:59.664Z,345
2017-07-15T14:56:40.060Z,335
2017-07-15T14:57:21.010Z,335
2017-07-15T14:58:01.462Z,330
2017-07-15T14:58:41.706Z,330
2017-07-15T14:59:22.049Z,330
2017-07-15T15:00:02.298Z,330
2017-07-15T15:00:42.838Z,335
2017-07-15T15:01:23.176Z,345
2017-07-15T15:02:03.430Z,345
2017-07-15T15:02:43.867Z,350
2017-07-15T15:03:24.210Z,350
2017-07-15T15:04:04.356Z,355
2017-07-15T15:04:44.503Z,355
2017-07-15T15:05:24.845Z,355
2017-07-15T15:06:05.200Z,350
2017-07-15T15:06:45.399Z,345
2017-07-15T15:07:25.751Z,340
2017-07-15T15:08:06.192Z,330
2017-07-15T15:08:46.373Z,320
2017-07-15T15:09:26.702Z,315
2017-07-15T15:10:06.645Z,305
2017-07-15T15:10:46.785Z,300
2017-07-15T15:11:27.115Z,290
2017-07-15T15:12:07.461Z,285
2017-07-15T15:12:47.708Z,290
2017-07-15T15:13:27.844Z,290
2017-07-15T15:14:08.296Z,295
2017-07-15T15:14:48.740Z,295
2017-07-15T15:15:29.484Z,305
2017-07-15T15:16:09.833Z,315
2017-07-15T15:16:49.782Z,325
2017-07-15T15:17:30.129Z,335
2017-07-15T15:18:10.468Z,350
2017-07-15T15:18:50.808Z,355
2017-07-15T15:19:31.454Z,360
2017-07-15T15:20:11.702Z,365
2017-07-15T15:20:51.949Z,370
2017-07-15T15:21:32.707Z,375
2017-07-15T15:22:12.747Z,375
2017-07-15T15:22:53.297Z,380
2017-07-15T15:23:33.238Z,385
2017-07-15T15:24:13.807Z,390
2017-07-15T15:24:54.049Z,375
2017-07-15T15:25:34.186Z,365
2017-07-15T15:26:14.331Z,360
2017-07-15T15:26:54.572Z,355
2017-07-15T15:27:34.909Z,355
2017-07-15T15:28:15.359Z,350
2017-07-15T15:28:55.701Z,345
2017-07-15T15:29:35.642Z,345
2017-07-15T15:30:15.695Z,340
2017-07-15T15:30:55.745Z,340
2017-07-15T15:31:36.093Z,340
2017-07-15T15:32:16.156Z,345
2017-07-15T15:32:56.104Z,350
2017-07-15T15:33:35.854Z,350
2017-07-15T15:34:16.191Z,340
2017-07-15T15:34:56.428Z,330
2017-07-15T15:35:36.975Z,325
2017-07-15T15:36:17.030Z,320
2017-07-15T15:36:57.285Z,305
2017-07-15T15:37:37.629Z,300
2017-07-15T15:38:17.663Z,295
2017-07-15T15:38:58.208Z,285
2017-07-15T15:39:38.745Z,275
2017-07-15T15:40:18.693Z,270
2017-07-15T15:40:58.952Z,265
2017-07-15T15:41:39.394Z,265
2017-07-15T15:42:19.148Z,260
2017-07-15T15:42:59.391Z,255
2017-07-15T15:43:39.836Z,255
2017-07-15T15:44:20.168Z,255
2017-07-15T15:45:00.609Z,255
2017-07-15T15:45:41.353Z,250
2017-07-15T15:46:21.292Z,245
2017-07-15T15:47:02.061Z,235
2017-07-15T15:47:42.106Z,235
2017-07-15T15:48:22.669Z,240
2017-07-15T15:49:03.114Z,240
2017-07-15T15:49:43.771Z,240
2017-07-15T15:50:23.717Z,245
2017-07-15T15:51:03.916Z,250
2017-07-15T15:51:44.615Z,255
2017-07-15T15:52:24.882Z,260
2017-07-15T15:53:05.120Z,265
2017-07-15T15:53:45.656Z,270
2017-07-15T15:54:25.795Z,275
2017-07-15T15:55:06.234Z,280
2017-07-15T15:55:46.686Z,280
2017-07-15T15:56:28.426Z,280
2017-07-15T15:57:08.876Z,280
2017-07-15T15:57:49.208Z,280
2017-07-15T15:58:29.554Z,280
2017-07-15T15:59:10.106Z,280
2017-07-15T15:59:50.564Z,280
2017-07-15T16:00:31.096Z,280
2017-07-15T16:01:11.242Z,280
2017-07-15T16:01:51.679Z,275
2017-07-15T16:02:32.571Z,270
2017-07-15T16:03:13.035Z,265
2017-07-15T16:03:53.677Z,260
2017-07-15T16:04:34.324Z,255
2017-07-15T16:05:14.870Z,255
2017-07-15T16:05:55.021Z,250
2017-07-15T16:06:35.178Z,250
2017-07-15T16:07:15.430Z,250
2017-07-15T16:07:55.771Z,250
2017-07-15T16:08:35.916Z,255
2017-07-15T16:09:16.366Z,255
2017-07-15T16:09:56.700Z,255
2017-07-15T16:10:37.043Z,260
2017-07-15T16:11:17.392Z,260
2017-07-15T16:11:57.531Z,260
2017-07-15T16:12:39.714Z,260
2017-07-15T16:13:20.468Z,255
2017-07-15T16:14:00.715Z,255
2017-07-15T16:14:41.207Z,250
2017-07-15T16:15:22.496Z,245
2017-07-15T16:16:03.786Z,245
2017-07-15T16:16:44.603Z,240
2017-07-15T16:17:24.957Z,240
2017-07-15T16:18:05.194Z,235
2017-07-15T16:18:45.171Z,235
2017-07-15T16:19:26.314Z,235
2017-07-15T16:20:06.574Z,230
2017-07-15T16:20:46.859Z,230
2017-07-15T16:21:27.306Z,225
2017-07-15T16:22:08.055Z,225
2017-07-15T16:22:48.394Z,220
2017-07-15T16:23:28.370Z,220
2017-07-15T16:24:08.104Z,220
2017-07-15T16:24:48.769Z,220
2017-07-15T16:25:29.025Z,220
2017-07-15T16:26:09.368Z,215
2017-07-15T16:26:49.812Z,210
2017-07-15T16:27:29.952Z,210
2017-07-15T16:28:10.009Z,205
2017-07-15T16:28:50.352Z,205
2017-07-15T16:29:30.308Z,210
2017-07-15T16:30:11.051Z,205
2017-07-15T16:30:51.136Z,205
2017-07-15T16:31:31.694Z,205
2017-07-15T16:32:12.253Z,205
2017-07-15T16:32:52.295Z,205
2017-07-15T16:33:32.820Z,205
2017-07-15T16:34:13.345Z,200
2017-07-15T16:34:54.265Z,200
2017-07-15T16:35:34.709Z,195
2017-07-15T16:36:15.559Z,190
2017-07-15T16:36:55.813Z,185
2017-07-15T16:37:36.190Z,185
2017-07-15T16:38:16.826Z,175
2017-07-15T16:38:56.797Z,170
2017-07-15T16:39:37.032Z,170
2017-07-15T16:40:17.381Z,170
2017-07-15T16:40:58.037Z,170
2017-07-15T16:41:38.200Z,170
2017-07-15T16:42:18.554Z,170
2017-07-15T16:42:58.893Z,170
2017-07-15T16:43:39.567Z,175
2017-07-15T16:44:20.218Z,175
2017-07-15T16:45:00.480Z,180
2017-07-15T16:45:41.259Z,190
2017-07-15T16:46:21.927Z,195
2017-07-15T16:47:02.193Z,200
2017-07-15T16:47:42.659Z,200
2017-07-15T16:48:23.223Z,200
2017-07-15T16:49:03.578Z,195
2017-07-15T16:49:43.733Z,195
2017-07-15T16:50:24.269Z,190
2017-07-15T16:51:04.517Z,185
2017-07-15T16:51:45.067Z,180
2017-07-15T16:52:25.304Z,175
2017-07-15T16:53:05.456Z,170
2017-07-15T16:53:45.793Z,175
2017-07-15T16:54:25.838Z,185
2017-07-15T16:55:05.886Z,180
2017-07-15T16:55:46.243Z,185
2017-07-15T16:56:26.384Z,190
2017-07-15T16:57:06.971Z,190
2017-07-15T16:57:47.520Z,190
2017-07-15T16:58:27.859Z,185
2017-07-15T16:59:08.097Z,185
2017-07-15T16:59:48.543Z,185
2017-07-15T17:00:28.591Z,180
2017-07-15T17:01:08.636Z,180
2017-07-15T17:01:48.978Z,175
2017-07-15T17:02:29.017Z,170
2017-07-15T17:03:09.653Z,170
2017-07-15T17:03:49.794Z,165
2017-07-15T17:04:29.937Z,165
2017-07-15T17:05:10.179Z,160
2017-07-15T17:05:50.817Z,155
2017-07-15T17:06:32.134Z,150
2017-07-15T17:07:12.492Z,145
2017-07-15T17:07:52.338Z,140
2017-07-15T17:08:32.880Z,140
2017-07-15T17:09:13.319Z,130
2017-07-15T17:09:53.458Z,125
2017-07-15T17:10:33.700Z,125
2017-07-15T17:11:14.045Z,130
2017-07-15T17:11:54.186Z,135
2017-07-15T17:12:34.224Z,135
2017-07-15T17:13:14.264Z,140
2017-07-15T17:13:54.906Z,140
2017-07-15T17:14:35.440Z,140
2017-07-15T17:15:15.485Z,140
2017-07-15T17:15:55.919Z,140
2017-07-15T17:16:36.287Z,135
2017-07-15T17:17:16.916Z,135
2017-07-15T17:17:56.959Z,140
2017-07-15T17:18:37.402Z,140
2017-07-15T17:19:17.736Z,140
2017-07-15T17:19:57.984Z,140
2017-07-15T17:20:38.120Z,140
2017-07-15T17:21:18.667Z,140
2017-07-15T17:21:58.907Z,140
2017-07-15T17:22:39.044Z,140
2017-07-15T17:23:19.087Z,140
2017-07-15T17:23:59.332Z,135
2017-07-15T17:24:39.669Z,135
2017-07-15T17:25:20.011Z,135
2017-07-15T17:26:00.249Z,135
2017-07-15T17:26:40.601Z,130